Cdry Blue — ICOB — position and weather

sailwx.info

Track history (hours):
 
Tides and Currents Weather Stations Pressure Air Temp Water Temp Dewpoint Dewpoint Depression Visibility Wind Speed Wind Dir Waves Ship Positions

Cdry Blue

Last reported at 2016-May-24 08:28 UTC. Time now 2016-May-24 17:47 UTC.
Position N 40°38' E 022°55'.

Length 108 m; draft 7.1 m.

Type: Cargo ship. MMSI: 247289300.

Date/timePositionNaut miles runAvg speedWind from/ knotsBaromVisibWave heightAir tempDewpointWater temp
2016-May-24 08:28N 40°38' E 022°55'0 0.0
2016-May-24 07:28N 40°38' E 022°55'0 0.0
2016-May-24 06:28N 40°38' E 022°55'0 0.0
2016-May-24 05:31N 40°38' E 022°55'0 0.0
2016-May-24 04:31N 40°38' E 022°55'0 0.0
2016-May-24 03:31N 40°38' E 022°55'0 0.0
2016-May-24 02:31N 40°38' E 022°55'0 0.0
2016-May-24 01:31N 40°38' E 022°55'0 0.0
2016-May-24 00:31N 40°38' E 022°55'0 0.0
2016-May-23 23:31N 40°38' E 022°55'0 0.0
2016-May-23 22:22N 40°38' E 022°55'0 0.0
2016-May-23 21:25N 40°38' E 022°55'0 0.0
2016-May-23 20:25N 40°38' E 022°55'0 0.0
2016-May-23 19:25N 40°38' E 022°55'0 0.0
2016-May-23 18:28N 40°38' E 022°55'0 0.0
2016-May-23 17:28N 40°38' E 022°55'0 0.0
2016-May-23 16:28N 40°38' E 022°55'0 0.0
2016-May-23 15:31N 40°38' E 022°55'0 0.0
2016-May-23 14:31N 40°38' E 022°55'1 1.0
2016-May-23 13:33N 40°37' E 022°55'6 6.1
2016-May-23 12:33N 40°32' E 022°50'174 9.6
2016-May-22 18:28N 37°60' E 024°39'9 9.6
2016-May-22 17:33N 37°53' E 024°32'1010.1
2016-May-22 16:33N 37°46' E 024°22'14 9.6
2016-May-22 15:08N 37°36' E 024°11'610.0
2016-May-22 14:29N 37°30' E 024°07'1010.3
2016-May-22 13:33N 37°22' E 024°00'379 9.7
2016-May-20 22:24N 37°50' E 016°03'1211.0
2016-May-20 21:20N 37°53' E 015°48'810.6
2016-May-20 20:33N 37°55' E 015°38'1111.3
2016-May-20 19:33N 38°06' E 015°35'1010.4
2016-May-20 18:33N 38°16' E 015°40'1111.2
2016-May-20 17:33N 38°20' E 015°27'1212.2
2016-May-20 16:32N 38°19' E 015°11'1211.9
2016-May-20 15:33N 38°19' E 014°56'5711.3
2016-May-20 10:30N 38°17' E 013°44'1111.2
2016-May-20 09:33N 38°17' E 013°30'3611.5
2016-May-20 06:24N 38°16' E 012°44'1011.4
2016-May-20 05:33N 38°14' E 012°32'35211.6
2016-May-18 23:16N 37°45' E 005°07'13110.9
2016-May-18 11:16N 37°22' E 002°24'9710.9
2016-May-18 02:23N 37°05' E 000°25'910.7
2016-May-18 01:31N 37°03' E 000°13'1010.4
2016-May-18 00:33N 37°01' E 000°01'2210.9
2016-May-17 22:33N 36°55' W 000°25'2311.0
2016-May-17 20:29N 36°47' W 000°52'1111.3
2016-May-17 19:32N 36°43' W 001°05'1110.9
2016-May-17 18:30N 36°39' W 001°17'1010.6
2016-May-17 17:32N 36°34' W 001°29'18211.1
2016-May-17 01:04N 36°01' W 005°11'612.3
2016-May-17 00:33N 35°60' W 005°19'  
Track history (hours):
 
Tides and Currents Weather Stations Pressure Air Temp Water Temp Dewpoint Dewpoint Depression Visibility Wind Speed Wind Dir Waves Ship Positions

Cdry Blue

Last reported at 2016-May-24 08:28 UTC. Time now 2016-May-24 17:47 UTC.
Position N 40°38' E 022°55'.

Length 108 m; draft 7.1 m.

Type: Cargo ship. MMSI: 247289300.

Date/timePositionNaut miles runAvg speedWind from/ knotsBaromVisibWave heightAir tempDewpointWater temp
2016-May-24 08:28N 40°38' E 022°55'0 0.0
2016-May-24 07:28N 40°38' E 022°55'0 0.0
2016-May-24 06:28N 40°38' E 022°55'0 0.0
2016-May-24 05:31N 40°38' E 022°55'0 0.0
2016-May-24 04:31N 40°38' E 022°55'0 0.0
2016-May-24 03:31N 40°38' E 022°55'0 0.0
2016-May-24 02:31N 40°38' E 022°55'0 0.0
2016-May-24 01:31N 40°38' E 022°55'0 0.0
2016-May-24 00:31N 40°38' E 022°55'0 0.0
2016-May-23 23:31N 40°38' E 022°55'0 0.0
2016-May-23 22:22N 40°38' E 022°55'0 0.0
2016-May-23 21:25N 40°38' E 022°55'0 0.0
2016-May-23 20:25N 40°38' E 022°55'0 0.0
2016-May-23 19:25N 40°38' E 022°55'0 0.0
2016-May-23 18:28N 40°38' E 022°55'0 0.0
2016-May-23 17:28N 40°38' E 022°55'0 0.0
2016-May-23 16:28N 40°38' E 022°55'0 0.0
2016-May-23 15:31N 40°38' E 022°55'0 0.0
2016-May-23 14:31N 40°38' E 022°55'1 1.0
2016-May-23 13:33N 40°37' E 022°55'6 6.1
2016-May-23 12:33N 40°32' E 022°50'174 9.6
2016-May-22 18:28N 37°60' E 024°39'9 9.6
2016-May-22 17:33N 37°53' E 024°32'1010.1
2016-May-22 16:33N 37°46' E 024°22'14 9.6
2016-May-22 15:08N 37°36' E 024°11'610.0
2016-May-22 14:29N 37°30' E 024°07'1010.3
2016-May-22 13:33N 37°22' E 024°00'379 9.7
2016-May-20 22:24N 37°50' E 016°03'1211.0
2016-May-20 21:20N 37°53' E 015°48'810.6
2016-May-20 20:33N 37°55' E 015°38'1111.3
2016-May-20 19:33N 38°06' E 015°35'1010.4
2016-May-20 18:33N 38°16' E 015°40'1111.2
2016-May-20 17:33N 38°20' E 015°27'1212.2
2016-May-20 16:32N 38°19' E 015°11'1211.9
2016-May-20 15:33N 38°19' E 014°56'5711.3
2016-May-20 10:30N 38°17' E 013°44'1111.2
2016-May-20 09:33N 38°17' E 013°30'3611.5
2016-May-20 06:24N 38°16' E 012°44'1011.4
2016-May-20 05:33N 38°14' E 012°32'35211.6
2016-May-18 23:16N 37°45' E 005°07'13110.9
2016-May-18 11:16N 37°22' E 002°24'9710.9
2016-May-18 02:23N 37°05' E 000°25'910.7
2016-May-18 01:31N 37°03' E 000°13'1010.4
2016-May-18 00:33N 37°01' E 000°01'2210.9
2016-May-17 22:33N 36°55' W 000°25'2311.0
2016-May-17 20:29N 36°47' W 000°52'1111.3
2016-May-17 19:32N 36°43' W 001°05'1110.9
2016-May-17 18:30N 36°39' W 001°17'1010.6
2016-May-17 17:32N 36°34' W 001°29'18211.1
2016-May-17 01:04N 36°01' W 005°11'612.3
2016-May-17 00:33N 35°60' W 005°19'  

Dump ship's entire track history